createdAt,value
2023-04-20T00:01:58.401Z,86.48
2023-04-20T00:04:47.251Z,86.57
2023-04-20T00:07:33.538Z,86.30
2023-04-20T00:10:19.992Z,86.19
2023-04-20T00:13:06.533Z,86.00
2023-04-20T00:15:52.778Z,85.93
2023-04-20T00:18:39.797Z,85.75
2023-04-20T00:21:26.605Z,85.68
2023-04-20T00:24:12.983Z,85.54
2023-04-20T00:26:59.382Z,85.08
2023-04-20T00:29:46.940Z,85.14
2023-04-20T00:32:33.619Z,84.86
2023-04-20T00:35:23.067Z,84.91
2023-04-20T00:38:11.287Z,84.29
2023-04-20T00:40:57.743Z,84.19
2023-04-20T00:43:53.594Z,84.32
2023-04-20T00:46:40.800Z,83.95
2023-04-20T00:49:31.298Z,83.75
2023-04-20T00:52:18.605Z,83.31
2023-04-20T00:55:06.552Z,83.13
2023-04-20T00:57:52.971Z,83.00
2023-04-20T01:00:40.120Z,82.99
2023-04-20T01:03:27.178Z,82.56
2023-04-20T01:06:14.953Z,82.45
2023-04-20T01:09:02.834Z,82.27
2023-04-20T01:11:49.487Z,82.20
2023-04-20T01:14:36.267Z,82.02
2023-04-20T01:17:23.586Z,82.27
2023-04-20T01:20:11.912Z,82.03
2023-04-20T01:22:58.094Z,81.80
2023-04-20T01:25:44.657Z,81.60
2023-04-20T01:28:30.818Z,81.52
2023-04-20T01:31:17.457Z,81.58
2023-04-20T01:34:04.157Z,81.65
2023-04-20T01:36:50.557Z,81.50
2023-04-20T01:39:40.384Z,81.56
2023-04-20T01:42:27.069Z,81.55
2023-04-20T01:45:16.427Z,81.51
2023-04-20T01:48:02.762Z,81.45
2023-04-20T01:50:52.092Z,81.66
2023-04-20T01:53:38.564Z,81.84
2023-04-20T01:56:26.997Z,81.71
2023-04-20T01:59:14.226Z,81.99
2023-04-20T02:02:00.446Z,82.12
2023-04-20T02:04:46.824Z,82.42
2023-04-20T02:07:33.010Z,82.72
2023-04-20T02:10:19.557Z,82.68
2023-04-20T02:13:05.983Z,83.35
2023-04-20T02:15:53.516Z,83.46
2023-04-20T02:18:41.715Z,83.50
2023-04-20T02:21:28.805Z,83.80
2023-04-20T02:24:15.218Z,83.85
2023-04-20T02:27:01.896Z,84.12
2023-04-20T02:29:48.176Z,84.07
2023-04-20T02:32:34.884Z,84.12
2023-04-20T02:35:21.833Z,84.19
2023-04-20T02:38:08.620Z,83.96
2023-04-20T02:40:58.327Z,83.94
2023-04-20T02:43:44.852Z,84.04
2023-04-20T02:46:31.631Z,84.40
2023-04-20T02:49:18.609Z,84.23
2023-04-20T02:52:06.298Z,84.24
2023-04-20T02:54:52.990Z,84.32
2023-04-20T02:57:39.334Z,84.36
2023-04-20T03:00:26.225Z,84.43
2023-04-20T03:03:20.837Z,84.50
2023-04-20T03:06:07.577Z,84.38
2023-04-20T03:08:54.370Z,84.61
2023-04-20T03:12:05.013Z,84.39
2023-04-20T03:15:16.490Z,84.76
2023-04-20T03:18:17.176Z,84.78
2023-04-20T03:21:04.244Z,84.90
2023-04-20T03:23:50.538Z,84.73
2023-04-20T03:26:37.008Z,84.81
2023-04-20T03:29:30.815Z,84.78
2023-04-20T03:32:17.464Z,84.82
2023-04-20T03:35:05.983Z,84.62
2023-04-20T03:37:52.469Z,84.46
2023-04-20T03:40:39.186Z,84.89
2023-04-20T03:43:26.757Z,84.64
2023-04-20T03:46:14.093Z,84.86
2023-04-20T03:49:00.341Z,84.70
2023-04-20T03:51:46.664Z,85.06
2023-04-20T03:54:33.230Z,85.17
2023-04-20T03:57:19.600Z,84.96
2023-04-20T04:00:10.157Z,84.97
2023-04-20T04:03:05.742Z,85.33
2023-04-20T04:05:52.396Z,85.36
2023-04-20T04:08:38.846Z,85.38
2023-04-20T04:11:26.092Z,85.36
2023-04-20T04:14:12.775Z,85.46
2023-04-20T04:16:59.059Z,85.65
2023-04-20T04:19:45.276Z,85.75
2023-04-20T04:22:31.622Z,85.78
2023-04-20T04:25:42.100Z,85.69
2023-04-20T04:28:30.996Z,86.02
2023-04-20T04:31:28.496Z,85.88
2023-04-20T04:34:18.364Z,85.62
2023-04-20T04:37:08.055Z,85.68
2023-04-20T04:40:14.127Z,85.43
2023-04-20T04:43:02.183Z,85.24
2023-04-20T04:45:49.310Z,85.19
2023-04-20T04:48:37.375Z,84.95
2023-04-20T04:51:23.546Z,84.88
2023-04-20T04:54:10.206Z,84.39
2023-04-20T04:56:57.728Z,84.33
2023-04-20T04:59:43.984Z,84.02
2023-04-20T05:02:31.530Z,83.58
2023-04-20T05:05:21.046Z,83.36
2023-04-20T05:08:07.690Z,82.74
2023-04-20T05:10:53.941Z,82.11
2023-04-20T05:13:40.959Z,81.47
2023-04-20T05:16:26.988Z,80.98
2023-04-20T05:19:13.274Z,80.47
2023-04-20T05:21:59.757Z,79.81
2023-04-20T05:24:46.595Z,78.89
2023-04-20T05:27:33.564Z,78.38
2023-04-20T05:30:21.790Z,77.84
2023-04-20T05:33:08.777Z,77.35
2023-04-20T05:35:57.366Z,76.18
2023-04-20T05:38:43.574Z,75.59
2023-04-20T05:41:29.930Z,74.27
2023-04-20T05:44:16.717Z,72.07
2023-04-20T05:47:20.227Z,68.68
2023-04-20T05:50:08.034Z,64.34
2023-04-20T05:52:53.981Z,58.01
2023-04-20T05:55:40.374Z,55.29
2023-04-20T05:58:26.887Z,52.92
2023-04-20T06:01:13.922Z,48.77
2023-04-20T06:04:00.775Z,46.85
2023-04-20T06:06:47.547Z,44.86
2023-04-20T06:09:34.861Z,41.92
2023-04-20T06:12:21.196Z,40.99
2023-04-20T06:15:10.184Z,39.64
2023-04-20T06:17:57.101Z,38.66
2023-04-20T06:20:43.954Z,36.64
2023-04-20T06:23:30.488Z,35.32
2023-04-20T06:26:16.978Z,33.74
2023-04-20T06:29:03.213Z,33.86
2023-04-20T06:31:49.571Z,32.49
2023-04-20T06:34:35.920Z,31.95
2023-04-20T06:37:22.323Z,30.68
2023-04-20T06:40:09.035Z,29.86
2023-04-20T06:42:55.833Z,29.63
2023-04-20T06:45:41.954Z,29.09
2023-04-20T06:48:32.576Z,27.82
2023-04-20T06:51:19.389Z,27.62
2023-04-20T06:54:05.744Z,27.03
2023-04-20T06:56:51.761Z,26.85
2023-04-20T06:59:38.508Z,25.96
2023-04-20T07:02:25.656Z,26.32
2023-04-20T07:05:13.482Z,25.86
2023-04-20T07:08:00.040Z,25.38
2023-04-20T07:10:46.499Z,25.07
2023-04-20T07:13:33.811Z,24.65
2023-04-20T07:16:20.335Z,24.73
2023-04-20T07:19:06.784Z,24.72
2023-04-20T07:21:53.307Z,24.66
2023-04-20T07:24:39.604Z,24.38
2023-04-20T07:27:27.347Z,24.25
2023-04-20T07:30:13.965Z,24.15
2023-04-20T07:33:00.275Z,23.88
2023-04-20T07:35:46.991Z,23.73
2023-04-20T07:38:33.438Z,23.48
2023-04-20T07:41:22.398Z,23.10
2023-04-20T07:44:08.731Z,23.21
2023-04-20T07:46:56.979Z,23.29
2023-04-20T07:49:43.517Z,23.09
2023-04-20T07:52:30.072Z,23.43
2023-04-20T07:55:16.805Z,23.85
2023-04-20T07:58:03.307Z,23.30
2023-04-20T08:00:49.476Z,23.39
2023-04-20T08:03:36.050Z,23.44
2023-04-20T08:06:22.467Z,23.73
2023-04-20T08:09:09.685Z,23.27
2023-04-20T08:11:57.613Z,23.02
2023-04-20T08:14:44.655Z,23.10
2023-04-20T08:17:31.617Z,22.64
2023-04-20T08:20:19.227Z,22.71
2023-04-20T08:23:06.034Z,22.52
2023-04-20T08:25:55.640Z,22.50
2023-04-20T08:28:43.932Z,22.14
2023-04-20T08:31:30.575Z,22.39
2023-04-20T08:34:19.696Z,22.39
2023-04-20T08:37:06.464Z,22.24
2023-04-20T08:39:53.496Z,22.33
2023-04-20T08:42:39.998Z,22.09
2023-04-20T08:45:26.690Z,21.95
2023-04-20T08:48:13.233Z,21.81
2023-04-20T08:51:00.532Z,22.01
2023-04-20T08:53:46.742Z,21.88
2023-04-20T08:56:39.125Z,21.78
2023-04-20T08:59:26.793Z,21.40
2023-04-20T09:02:14.290Z,21.61
2023-04-20T09:05:03.514Z,21.69
2023-04-20T09:07:58.856Z,21.68
2023-04-20T09:10:45.287Z,21.33
2023-04-20T09:13:32.832Z,21.31
2023-04-20T09:16:19.769Z,21.29
2023-04-20T09:19:08.385Z,21.22
2023-04-20T09:22:28.665Z,21.45
2023-04-20T09:25:20.630Z,21.29
2023-04-20T09:28:08.535Z,21.12
2023-04-20T09:30:55.009Z,20.99
2023-04-20T09:33:43.319Z,20.67
2023-04-20T09:36:39.285Z,20.72
2023-04-20T09:39:26.540Z,20.59
2023-04-20T09:42:15.895Z,20.69
2023-04-20T09:45:03.707Z,20.29
2023-04-20T09:47:54.440Z,20.16
2023-04-20T09:50:49.281Z,20.44
2023-04-20T09:53:39.837Z,20.35
2023-04-20T09:56:32.813Z,20.03
2023-04-20T09:59:21.469Z,20.23
2023-04-20T10:02:11.180Z,20.09
2023-04-20T10:04:58.976Z,19.52
2023-04-20T10:07:45.511Z,19.45
2023-04-20T10:10:48.320Z,19.28
2023-04-20T10:13:36.998Z,19.34
2023-04-20T10:16:24.109Z,19.43
2023-04-20T10:19:10.603Z,19.09
2023-04-20T10:21:57.191Z,19.36
2023-04-20T10:24:44.814Z,19.16
2023-04-20T10:27:32.029Z,19.04
2023-04-20T10:30:19.300Z,19.38
2023-04-20T10:33:12.137Z,19.41
2023-04-20T10:35:58.845Z,19.99
2023-04-20T10:38:45.280Z,20.26
2023-04-20T10:41:31.628Z,20.42
2023-04-20T10:44:19.704Z,20.06
2023-04-20T10:47:06.752Z,20.52
2023-04-20T10:49:53.319Z,21.28
2023-04-20T10:52:43.056Z,20.96
2023-04-20T10:55:30.100Z,20.92
2023-04-20T10:58:24.337Z,21.14
2023-04-20T11:01:11.016Z,21.32
2023-04-20T11:03:57.657Z,21.32
2023-04-20T11:06:47.470Z,21.50
2023-04-20T11:09:37.649Z,21.57
2023-04-20T11:12:24.028Z,21.47
2023-04-20T11:15:10.799Z,21.84
2023-04-20T11:18:09.017Z,22.05
2023-04-20T11:20:56.292Z,21.76
2023-04-20T11:23:44.130Z,21.80
2023-04-20T11:26:37.758Z,22.43
2023-04-20T11:29:35.120Z,22.71
2023-04-20T11:32:24.405Z,23.02
2023-04-20T11:35:11.821Z,23.81
2023-04-20T11:37:59.186Z,24.61
2023-04-20T11:40:45.876Z,25.54
2023-04-20T11:43:32.839Z,26.30
2023-04-20T11:46:19.919Z,26.76
2023-04-20T11:49:06.493Z,27.43
2023-04-20T11:51:53.287Z,27.10
2023-04-20T11:54:39.787Z,28.06
2023-04-20T11:57:26.089Z,28.91
2023-04-20T12:00:13.626Z,29.97
2023-04-20T12:03:01.504Z,30.48
2023-04-20T12:05:48.259Z,30.25
2023-04-20T12:08:35.987Z,31.81
2023-04-20T12:11:22.821Z,32.58
2023-04-20T12:14:09.417Z,33.41
2023-04-20T12:16:58.550Z,33.89
2023-04-20T12:19:45.688Z,34.46
2023-04-20T12:22:32.164Z,35.27
2023-04-20T12:25:21.230Z,35.57
2023-04-20T12:28:07.861Z,35.57
2023-04-20T12:30:55.317Z,36.35
2023-04-20T12:33:42.849Z,36.20
2023-04-20T12:36:34.397Z,36.25
2023-04-20T12:39:21.302Z,36.03
2023-04-20T12:42:07.732Z,36.42
2023-04-20T12:44:55.605Z,36.76
2023-04-20T12:47:41.922Z,36.65
2023-04-20T12:50:28.147Z,37.00
2023-04-20T12:53:14.884Z,37.07
2023-04-20T12:56:02.744Z,36.96
2023-04-20T12:58:49.056Z,37.03
2023-04-20T13:01:35.757Z,37.17
2023-04-20T13:04:23.470Z,37.37
2023-04-20T13:07:10.100Z,37.53
2023-04-20T13:09:57.111Z,37.17
2023-04-20T13:12:44.246Z,37.47
2023-04-20T13:15:39.222Z,38.28
2023-04-20T13:18:26.173Z,37.79
2023-04-20T13:21:12.931Z,38.01
2023-04-20T13:23:59.912Z,38.38
2023-04-20T13:26:46.480Z,38.49
2023-04-20T13:29:38.021Z,38.57
2023-04-20T13:32:25.904Z,39.23
2023-04-20T13:35:17.142Z,39.35
2023-04-20T13:38:05.623Z,39.23
2023-04-20T13:40:52.344Z,39.40
2023-04-20T13:43:38.791Z,38.62
2023-04-20T13:46:24.984Z,38.74
2023-04-20T13:49:15.003Z,39.08
2023-04-20T13:52:01.480Z,39.20
2023-04-20T13:54:48.699Z,39.06
2023-04-20T13:57:35.394Z,38.94
2023-04-20T14:00:23.009Z,38.90
2023-04-20T14:03:10.621Z,38.27
2023-04-20T14:05:58.731Z,38.66
2023-04-20T14:08:46.569Z,38.46
2023-04-20T14:11:34.677Z,38.78
2023-04-20T14:14:22.013Z,39.16
2023-04-20T14:17:10.943Z,39.44
2023-04-20T14:19:58.299Z,39.13
2023-04-20T14:22:46.158Z,38.83
2023-04-20T14:25:36.168Z,38.88
2023-04-20T14:28:23.437Z,38.72
2023-04-20T14:31:10.147Z,38.76
2023-04-20T14:33:56.802Z,38.19
2023-04-20T14:36:43.238Z,38.29
2023-04-20T14:39:29.957Z,38.48
2023-04-20T14:42:17.716Z,38.88
2023-04-20T14:45:05.172Z,38.61
2023-04-20T14:48:16.334Z,38.35
2023-04-20T14:51:05.409Z,38.52
2023-04-20T14:53:51.928Z,38.71
2023-04-20T14:56:38.232Z,38.63
2023-04-20T14:59:26.363Z,38.30
2023-04-20T15:02:13.625Z,38.51
2023-04-20T15:05:00.490Z,38.35
2023-04-20T15:07:50.038Z,38.55
2023-04-20T15:10:38.010Z,38.89
2023-04-20T15:13:25.735Z,38.90
2023-04-20T15:16:14.843Z,39.11
2023-04-20T15:19:02.724Z,38.61
2023-04-20T15:21:49.944Z,38.24
2023-04-20T15:24:36.456Z,38.52
2023-04-20T15:27:22.819Z,38.65
2023-04-20T15:30:10.282Z,38.58
2023-04-20T15:33:04.542Z,38.74
2023-04-20T15:35:51.893Z,39.21
2023-04-20T15:38:39.839Z,39.72
2023-04-20T15:41:27.738Z,39.43
2023-04-20T15:44:14.390Z,39.68
2023-04-20T15:47:01.752Z,39.79
2023-04-20T15:49:48.423Z,39.56
2023-04-20T15:52:35.005Z,39.79
2023-04-20T15:55:21.633Z,39.37
2023-04-20T15:58:08.442Z,39.74
2023-04-20T16:00:56.408Z,39.93
2023-04-20T16:03:45.318Z,40.32
2023-04-20T16:06:32.335Z,40.32
2023-04-20T16:09:19.342Z,40.46
2023-04-20T16:12:06.478Z,40.82
2023-04-20T16:14:53.984Z,41.11
2023-04-20T16:17:40.972Z,41.03
2023-04-20T16:20:27.548Z,41.37
2023-04-20T16:23:15.401Z,41.14
2023-04-20T16:26:03.468Z,41.77
2023-04-20T16:28:50.612Z,41.86
2023-04-20T16:31:37.051Z,42.49
2023-04-20T16:34:23.857Z,42.18
2023-04-20T16:37:10.518Z,42.02
2023-04-20T16:39:57.149Z,42.10
2023-04-20T16:42:44.084Z,42.24
2023-04-20T16:45:33.150Z,43.04
2023-04-20T16:48:20.180Z,42.67
2023-04-20T16:51:07.171Z,43.08
2023-04-20T16:53:53.697Z,42.90
2023-04-20T16:56:41.337Z,43.33
2023-04-20T16:59:28.050Z,43.47
2023-04-20T17:02:14.150Z,43.97
2023-04-20T17:05:01.155Z,44.61
2023-04-20T17:07:51.443Z,45.34
2023-04-20T17:10:38.771Z,45.54
2023-04-20T17:13:25.543Z,45.09
2023-04-20T17:16:12.242Z,45.36
2023-04-20T17:18:59.345Z,45.26
2023-04-20T17:21:49.548Z,46.01
2023-04-20T17:24:36.191Z,46.25
2023-04-20T17:27:22.808Z,46.33
2023-04-20T17:30:10.114Z,46.90
2023-04-20T17:32:56.841Z,46.78
2023-04-20T17:35:45.879Z,47.53
2023-04-20T17:38:35.999Z,47.37
2023-04-20T17:41:22.351Z,47.59
2023-04-20T17:44:12.017Z,47.68
2023-04-20T17:47:00.808Z,47.59
2023-04-20T17:49:47.432Z,48.07
2023-04-20T17:52:33.957Z,47.98
2023-04-20T17:55:20.896Z,48.29
2023-04-20T17:58:07.265Z,48.31
2023-04-20T18:00:54.141Z,48.68
2023-04-20T18:03:40.742Z,48.77
2023-04-20T18:06:29.378Z,48.87
2023-04-20T18:09:17.365Z,48.84
2023-04-20T18:12:07.251Z,49.09
2023-04-20T18:14:56.138Z,49.66
2023-04-20T18:17:44.939Z,49.32
2023-04-20T18:20:32.493Z,48.98
2023-04-20T18:23:18.797Z,49.20
2023-04-20T18:26:05.324Z,49.26
2023-04-20T18:28:51.696Z,49.81
2023-04-20T18:31:38.014Z,49.76
2023-04-20T18:34:29.148Z,49.95
2023-04-20T18:37:15.777Z,49.59
2023-04-20T18:40:04.048Z,49.83
2023-04-20T18:42:50.668Z,49.78
2023-04-20T18:45:37.220Z,49.75
2023-04-20T18:48:24.791Z,49.72
2023-04-20T18:51:11.217Z,49.59
2023-04-20T18:53:58.296Z,49.23
2023-04-20T18:56:45.265Z,49.13
2023-04-20T18:59:31.819Z,49.16
2023-04-20T19:02:20.654Z,49.11
2023-04-20T19:05:07.917Z,49.10
2023-04-20T19:07:55.539Z,48.85
2023-04-20T19:10:42.608Z,48.67
2023-04-20T19:13:29.203Z,48.65
2023-04-20T19:16:15.499Z,48.87
2023-04-20T19:19:03.310Z,48.68
2023-04-20T19:21:50.245Z,48.71
2023-04-20T19:24:36.922Z,48.57
2023-04-20T19:27:23.305Z,48.51
2023-04-20T19:30:11.008Z,48.60
2023-04-20T19:33:02.279Z,48.62
2023-04-20T19:35:50.262Z,48.52
2023-04-20T19:38:37.964Z,48.36
2023-04-20T19:41:25.626Z,48.81
2023-04-20T19:44:13.837Z,48.86
2023-04-20T19:47:00.424Z,48.74
2023-04-20T19:49:46.975Z,49.04
2023-04-20T19:52:34.502Z,49.31
2023-04-20T19:55:20.975Z,49.39
2023-04-20T19:58:08.723Z,49.63
2023-04-20T20:00:55.955Z,49.29
2023-04-20T20:03:42.750Z,49.42
2023-04-20T20:06:29.275Z,49.77
2023-04-20T20:09:23.221Z,49.65
2023-04-20T20:12:14.342Z,50.14
2023-04-20T20:15:04.244Z,50.24
2023-04-20T20:17:54.725Z,50.80
2023-04-20T20:20:44.713Z,51.26
2023-04-20T20:23:33.111Z,51.13
2023-04-20T20:26:19.468Z,51.61
2023-04-20T20:29:06.445Z,51.88
2023-04-20T20:31:57.626Z,52.17
2023-04-20T20:34:45.357Z,52.45
2023-04-20T20:37:35.271Z,53.08
2023-04-20T20:40:21.672Z,54.05
2023-04-20T20:43:08.106Z,54.47
2023-04-20T20:45:56.050Z,54.69
2023-04-20T20:48:43.270Z,55.01
2023-04-20T20:51:30.975Z,55.43
2023-04-20T20:54:17.703Z,55.76
2023-04-20T20:57:04.250Z,55.85
2023-04-20T20:59:53.420Z,56.29
2023-04-20T21:02:42.005Z,56.88
2023-04-20T21:05:29.122Z,57.13
2023-04-20T21:08:16.693Z,57.28
2023-04-20T21:11:03.623Z,57.66
2023-04-20T21:13:50.113Z,58.32
2023-04-20T21:16:39.073Z,58.11
2023-04-20T21:19:26.155Z,58.47
2023-04-20T21:22:12.961Z,58.49
2023-04-20T21:25:02.192Z,59.12
2023-04-20T21:27:48.942Z,59.25
2023-04-20T21:30:36.833Z,59.68
2023-04-20T21:33:24.916Z,59.60
2023-04-20T21:36:11.128Z,59.56
2023-04-20T21:38:57.862Z,59.94
2023-04-20T21:41:44.698Z,60.36
2023-04-20T21:44:31.770Z,60.36
2023-04-20T21:47:18.203Z,60.31
2023-04-20T21:50:05.780Z,60.39
2023-04-20T21:52:54.280Z,60.42
2023-04-20T21:55:42.367Z,60.40
2023-04-20T21:58:28.762Z,60.57
2023-04-20T22:01:16.145Z,60.47
2023-04-20T22:04:04.022Z,60.54
2023-04-20T22:06:52.965Z,60.39
2023-04-20T22:09:41.219Z,60.60
2023-04-20T22:12:36.444Z,60.19
2023-04-20T22:15:27.087Z,60.00
2023-04-20T22:18:15.169Z,60.07
2023-04-20T22:21:02.197Z,59.51
2023-04-20T22:23:48.985Z,59.02
2023-04-20T22:26:38.019Z,59.03
2023-04-20T22:29:24.453Z,58.89
2023-04-20T22:32:11.360Z,58.53
2023-04-20T22:34:57.965Z,58.45
2023-04-20T22:37:46.170Z,58.16
2023-04-20T22:40:32.824Z,57.71
2023-04-20T22:43:20.968Z,57.35
2023-04-20T22:46:07.603Z,57.12
2023-04-20T22:48:56.043Z,56.96
2023-04-20T22:51:42.638Z,56.94
2023-04-20T22:54:30.082Z,57.02
2023-04-20T22:57:20.725Z,57.64
2023-04-20T23:00:09.933Z,57.86
2023-04-20T23:02:56.545Z,57.95
2023-04-20T23:05:43.759Z,58.19
2023-04-20T23:08:32.878Z,58.21
2023-04-20T23:11:20.350Z,57.90
2023-04-20T23:14:08.428Z,58.18
2023-04-20T23:16:54.813Z,58.46
2023-04-20T23:19:41.228Z,58.97
2023-04-20T23:22:27.526Z,59.41
2023-04-20T23:25:14.157Z,59.69
2023-04-20T23:28:00.770Z,60.08
2023-04-20T23:30:47.443Z,60.84
2023-04-20T23:33:33.881Z,60.92
2023-04-20T23:36:20.784Z,60.94
2023-04-20T23:39:07.614Z,61.62
2023-04-20T23:41:53.652Z,61.56
2023-04-20T23:44:40.130Z,62.00
2023-04-20T23:47:26.403Z,62.66
2023-04-20T23:50:12.962Z,63.11
2023-04-20T23:53:00.546Z,63.01
2023-04-20T23:55:51.190Z,63.50
2023-04-20T23:58:38.003Z,64.55
